createdAt,value
2022-12-09T00:01:37.458Z,3.24
2022-12-09T00:04:05.612Z,3.29
2022-12-09T00:06:34.399Z,3.34
2022-12-09T00:09:03.811Z,3.37
2022-12-09T00:11:31.682Z,3.41
2022-12-09T00:14:01.060Z,3.48
2022-12-09T00:16:29.481Z,3.53
2022-12-09T00:18:58.099Z,3.57
2022-12-09T00:21:28.139Z,3.60
2022-12-09T00:23:59.788Z,3.59
2022-12-09T00:26:29.932Z,3.56
2022-12-09T00:28:58.258Z,3.59
2022-12-09T00:31:28.315Z,3.59
2022-12-09T00:33:59.865Z,3.60
2022-12-09T00:36:28.955Z,3.61
2022-12-09T00:38:59.276Z,3.64
2022-12-09T00:41:29.387Z,3.69
2022-12-09T00:43:57.922Z,3.70
2022-12-09T00:46:26.006Z,3.68
2022-12-09T00:48:54.292Z,3.72
2022-12-09T00:51:24.179Z,3.73
2022-12-09T00:53:54.848Z,3.70
2022-12-09T00:56:23.333Z,3.80
2022-12-09T00:58:52.738Z,3.84
2022-12-09T01:01:21.394Z,3.83
2022-12-09T01:03:50.662Z,3.84
2022-12-09T01:06:21.085Z,3.85
2022-12-09T01:08:49.406Z,3.84
2022-12-09T01:11:20.003Z,3.83
2022-12-09T01:13:49.948Z,3.80
2022-12-09T01:16:21.077Z,3.84
2022-12-09T01:18:49.594Z,3.86
2022-12-09T01:21:18.272Z,3.87
2022-12-09T01:23:46.416Z,3.89
2022-12-09T01:26:14.214Z,3.86
2022-12-09T01:28:42.049Z,3.86
2022-12-09T01:31:12.136Z,3.86
2022-12-09T01:33:42.537Z,3.84
2022-12-09T01:36:12.954Z,3.84
2022-12-09T01:38:42.104Z,3.84
2022-12-09T01:41:10.245Z,3.84
2022-12-09T01:43:38.840Z,3.83
2022-12-09T01:46:07.609Z,3.80
2022-12-09T01:48:39.138Z,3.77
2022-12-09T01:51:12.437Z,3.78
2022-12-09T01:53:44.016Z,3.73
2022-12-09T01:56:18.133Z,3.72
2022-12-09T01:58:47.336Z,3.71
2022-12-09T02:01:16.435Z,3.72
2022-12-09T02:03:44.751Z,3.75
2022-12-09T02:06:14.184Z,3.78
2022-12-09T02:08:47.533Z,3.83
2022-12-09T02:11:24.297Z,3.70
2022-12-09T02:14:01.939Z,3.85
2022-12-09T02:16:35.985Z,3.85
2022-12-09T02:19:13.153Z,3.86
2022-12-09T02:21:49.884Z,3.85
2022-12-09T02:24:23.645Z,3.86
2022-12-09T02:27:00.614Z,3.87
2022-12-09T02:29:55.199Z,3.85
2022-12-09T02:32:52.079Z,3.83
2022-12-09T02:35:28.407Z,3.83
2022-12-09T02:38:01.725Z,3.84
2022-12-09T02:40:35.279Z,3.83
2022-12-09T02:43:06.623Z,3.83
2022-12-09T02:45:36.540Z,3.82
2022-12-09T02:48:05.669Z,3.82
2022-12-09T02:50:39.075Z,3.77
2022-12-09T02:53:10.598Z,3.76
2022-12-09T02:55:44.669Z,3.72
2022-12-09T02:58:12.750Z,3.75
2022-12-09T03:00:41.882Z,3.74
2022-12-09T03:03:16.425Z,3.73
2022-12-09T03:05:52.107Z,3.74
2022-12-09T03:08:29.168Z,3.71
2022-12-09T03:11:01.091Z,3.68
2022-12-09T03:13:43.854Z,3.68
2022-12-09T03:16:19.190Z,3.67
2022-12-09T03:18:52.852Z,3.64
2022-12-09T03:21:26.360Z,3.67
2022-12-09T03:23:57.366Z,3.67
2022-12-09T03:26:29.401Z,3.63
2022-12-09T03:28:59.827Z,3.61
2022-12-09T03:31:32.569Z,3.59
2022-12-09T03:34:05.109Z,3.56
2022-12-09T03:36:38.111Z,3.55
2022-12-09T03:39:10.489Z,3.55
2022-12-09T03:41:44.554Z,3.51
2022-12-09T03:44:18.085Z,3.51
2022-12-09T03:46:46.579Z,3.50
2022-12-09T03:49:14.865Z,3.45
2022-12-09T03:51:47.469Z,3.42
2022-12-09T03:54:21.404Z,3.41
2022-12-09T03:56:53.807Z,3.42
2022-12-09T03:59:23.823Z,3.41
2022-12-09T04:01:53.120Z,3.41
2022-12-09T04:04:21.074Z,3.42
2022-12-09T04:06:52.962Z,3.41
2022-12-09T04:09:20.839Z,3.40
2022-12-09T04:11:48.796Z,3.40
2022-12-09T04:14:16.615Z,3.34
2022-12-09T04:16:45.499Z,3.13
2022-12-09T04:19:13.646Z,3.18
2022-12-09T04:21:41.845Z,3.09
2022-12-09T04:24:11.593Z,3.00
2022-12-09T04:26:39.461Z,2.92
2022-12-09T04:29:07.608Z,2.81
2022-12-09T04:31:35.879Z,2.79
2022-12-09T04:34:09.203Z,2.71
2022-12-09T04:36:38.086Z,2.58
2022-12-09T04:39:06.162Z,2.46
2022-12-09T04:41:36.824Z,2.31
2022-12-09T04:44:05.094Z,2.16
2022-12-09T04:46:33.202Z,2.01
2022-12-09T04:49:01.238Z,1.88
2022-12-09T04:51:32.470Z,1.76
2022-12-09T04:54:05.257Z,1.67
2022-12-09T04:56:33.153Z,1.65
2022-12-09T04:59:02.466Z,1.69
2022-12-09T05:01:31.669Z,1.77
2022-12-09T05:04:00.036Z,1.88
2022-12-09T05:06:28.379Z,1.97
2022-12-09T05:08:56.598Z,2.07
2022-12-09T05:11:25.057Z,2.17
2022-12-09T05:13:53.928Z,2.28
2022-12-09T05:16:23.467Z,2.40
2022-12-09T05:18:51.595Z,2.50
2022-12-09T05:21:21.712Z,2.58
2022-12-09T05:23:50.280Z,2.67
2022-12-09T05:26:20.776Z,2.74
2022-12-09T05:28:48.804Z,2.82
2022-12-09T05:31:19.844Z,2.88
2022-12-09T05:33:50.744Z,2.94
2022-12-09T05:36:21.647Z,2.98
2022-12-09T05:38:49.701Z,3.03
2022-12-09T05:41:17.815Z,3.05
2022-12-09T05:43:46.506Z,3.08
2022-12-09T05:46:15.826Z,3.09
2022-12-09T05:48:48.409Z,3.03
2022-12-09T05:51:23.829Z,3.04
2022-12-09T05:53:51.837Z,2.98
2022-12-09T05:56:21.397Z,2.87
2022-12-09T05:58:49.810Z,2.81
2022-12-09T06:01:18.666Z,2.74
2022-12-09T06:03:48.308Z,2.69
2022-12-09T06:06:20.768Z,2.61
2022-12-09T06:08:48.821Z,2.48
2022-12-09T06:11:20.357Z,2.39
2022-12-09T06:13:50.077Z,2.15
2022-12-09T06:16:21.783Z,2.18
2022-12-09T06:18:51.579Z,2.06
2022-12-09T06:21:21.995Z,1.92
2022-12-09T06:23:51.588Z,1.79
2022-12-09T06:26:22.215Z,1.65
2022-12-09T06:28:50.389Z,1.60
2022-12-09T06:31:19.080Z,1.47
2022-12-09T06:33:56.398Z,1.45
2022-12-09T06:36:28.916Z,1.45
2022-12-09T06:38:58.347Z,1.46
2022-12-09T06:41:27.624Z,1.48
2022-12-09T06:43:57.871Z,1.48
2022-12-09T06:46:27.111Z,1.45
2022-12-09T06:48:56.658Z,1.41
2022-12-09T06:51:26.060Z,1.34
2022-12-09T06:53:56.056Z,1.25
2022-12-09T06:56:24.133Z,1.13
2022-12-09T06:58:52.084Z,0.99
2022-12-09T07:01:22.116Z,0.88
2022-12-09T07:03:52.362Z,0.70
2022-12-09T07:06:25.933Z,0.63
2022-12-09T07:08:55.853Z,0.43
2022-12-09T07:11:24.678Z,0.40
2022-12-09T07:13:52.923Z,0.15
2022-12-09T07:16:21.057Z,0.19
2022-12-09T07:18:49.504Z,0.12
2022-12-09T07:21:20.091Z,0.06
2022-12-09T07:23:48.508Z,0.01
2022-12-09T07:26:18.499Z,-0.13
2022-12-09T07:28:48.789Z,-0.08
2022-12-09T07:31:21.627Z,-0.13
2022-12-09T07:33:50.897Z,-0.16
2022-12-09T07:36:21.531Z,-0.24
2022-12-09T07:38:50.328Z,-0.20
2022-12-09T07:41:19.847Z,-0.22
2022-12-09T07:43:48.170Z,-0.23
2022-12-09T07:46:18.215Z,-0.26
2022-12-09T07:48:46.594Z,-0.28
2022-12-09T07:51:15.233Z,-0.30
2022-12-09T07:53:43.185Z,-0.31
2022-12-09T07:56:14.823Z,-0.32
2022-12-09T07:58:45.248Z,-0.33
2022-12-09T08:01:14.793Z,-0.19
2022-12-09T08:03:44.249Z,-0.06
2022-12-09T08:06:14.471Z,0.13
2022-12-09T08:08:44.104Z,0.32
2022-12-09T08:11:15.381Z,0.51
2022-12-09T08:13:45.086Z,0.72
2022-12-09T08:16:15.275Z,0.94
2022-12-09T08:18:44.293Z,1.13
2022-12-09T08:21:16.741Z,1.27
2022-12-09T08:23:45.796Z,1.43
2022-12-09T08:26:15.278Z,1.60
2022-12-09T08:28:45.060Z,1.76
2022-12-09T08:31:17.671Z,1.91
2022-12-09T08:33:45.985Z,2.06
2022-12-09T08:36:16.613Z,2.17
2022-12-09T08:38:45.535Z,2.23
2022-12-09T08:41:14.956Z,2.33
2022-12-09T08:43:45.065Z,2.44
2022-12-09T08:46:13.935Z,2.54
2022-12-09T08:48:43.981Z,2.60
2022-12-09T08:51:13.228Z,2.66
2022-12-09T08:53:41.579Z,2.74
2022-12-09T08:56:12.227Z,2.80
2022-12-09T08:58:42.393Z,2.87
2022-12-09T09:01:18.712Z,2.94
2022-12-09T09:03:48.235Z,2.99
2022-12-09T09:06:17.410Z,3.06
2022-12-09T09:08:45.953Z,3.13
2022-12-09T09:11:17.791Z,3.26
2022-12-09T09:13:47.934Z,3.32
2022-12-09T09:16:24.135Z,3.35
2022-12-09T09:18:52.720Z,3.45
2022-12-09T09:21:23.448Z,3.48
2022-12-09T09:23:51.933Z,3.47
2022-12-09T09:26:22.244Z,3.49
2022-12-09T09:28:51.017Z,3.53
2022-12-09T09:31:23.229Z,3.48
2022-12-09T09:33:51.927Z,3.49
2022-12-09T09:36:23.830Z,3.57
2022-12-09T09:38:53.888Z,3.64
2022-12-09T09:41:39.387Z,3.64
2022-12-09T09:44:18.190Z,3.70
2022-12-09T09:46:50.067Z,3.67
2022-12-09T09:49:23.718Z,3.62
2022-12-09T09:51:52.031Z,3.61
2022-12-09T09:54:20.100Z,3.69
2022-12-09T09:56:55.262Z,3.77
2022-12-09T09:59:33.345Z,3.76
2022-12-09T10:02:18.348Z,3.79
2022-12-09T10:05:03.462Z,3.83
2022-12-09T10:07:38.582Z,3.77
2022-12-09T10:10:17.799Z,3.75
2022-12-09T10:13:08.156Z,3.76
2022-12-09T10:15:43.971Z,3.76
2022-12-09T10:18:19.264Z,3.70
2022-12-09T10:20:48.851Z,3.78
2022-12-09T10:23:18.176Z,3.70
2022-12-09T10:25:48.985Z,3.69
2022-12-09T10:28:22.270Z,3.77
2022-12-09T10:30:51.723Z,3.88
2022-12-09T10:33:27.837Z,4.02
2022-12-09T10:35:56.381Z,4.08
2022-12-09T10:38:26.137Z,4.08
2022-12-09T10:41:01.501Z,4.11
2022-12-09T10:43:35.281Z,4.18
2022-12-09T10:46:22.366Z,4.29
2022-12-09T10:49:01.585Z,4.38
2022-12-09T10:51:31.992Z,4.35
2022-12-09T10:54:01.838Z,4.44
2022-12-09T10:56:33.086Z,4.50
2022-12-09T10:59:12.921Z,4.59
2022-12-09T11:01:51.581Z,4.57
2022-12-09T11:04:25.192Z,4.53
2022-12-09T11:06:59.303Z,4.53
2022-12-09T11:09:29.991Z,4.47
2022-12-09T11:11:58.453Z,4.54
2022-12-09T11:14:30.730Z,4.56
2022-12-09T11:17:01.362Z,4.54
2022-12-09T11:19:33.183Z,4.58
2022-12-09T11:22:31.695Z,4.58
2022-12-09T11:25:22.781Z,4.65
2022-12-09T11:27:53.997Z,4.65
2022-12-09T11:30:25.131Z,4.56
2022-12-09T11:32:59.803Z,4.53
2022-12-09T11:35:33.269Z,4.46
2022-12-09T11:38:04.761Z,4.37
2022-12-09T11:40:33.648Z,4.40
2022-12-09T11:43:01.442Z,4.38
2022-12-09T11:45:31.959Z,4.38
2022-12-09T11:48:27.576Z,4.38
2022-12-09T11:50:58.111Z,4.40
2022-12-09T11:53:29.564Z,4.42
2022-12-09T11:56:04.005Z,4.34
2022-12-09T11:58:39.844Z,4.22
2022-12-09T12:01:12.838Z,4.21
2022-12-09T12:03:44.780Z,4.22
2022-12-09T12:06:20.345Z,4.38
2022-12-09T12:08:52.519Z,4.47
2022-12-09T12:11:27.645Z,4.45
2022-12-09T12:14:02.062Z,4.41
2022-12-09T12:16:39.531Z,4.35
2022-12-09T12:19:16.673Z,4.27
2022-12-09T12:21:56.913Z,4.14
2022-12-09T12:24:50.281Z,4.03
2022-12-09T12:27:31.055Z,3.96
2022-12-09T12:30:03.349Z,3.95
2022-12-09T12:33:11.747Z,3.95
2022-12-09T12:35:57.913Z,3.92
2022-12-09T12:38:40.603Z,3.80
2022-12-09T12:41:15.084Z,3.78
2022-12-09T12:44:19.254Z,3.78
2022-12-09T12:46:57.442Z,3.77
2022-12-09T12:49:40.275Z,3.75
2022-12-09T12:52:39.473Z,3.77
2022-12-09T12:55:22.328Z,3.72
2022-12-09T12:57:58.830Z,3.63
2022-12-09T13:00:29.749Z,3.46
2022-12-09T13:03:09.628Z,3.29
2022-12-09T13:05:40.620Z,3.13
2022-12-09T13:08:15.337Z,3.04
2022-12-09T13:10:48.037Z,2.99
2022-12-09T13:13:19.651Z,2.94
2022-12-09T13:15:51.656Z,2.95
2022-12-09T13:18:24.153Z,2.97
2022-12-09T13:20:53.349Z,2.98
2022-12-09T13:23:33.078Z,3.03
2022-12-09T13:26:17.954Z,3.09
2022-12-09T13:28:52.860Z,3.19
2022-12-09T13:31:26.962Z,3.24
2022-12-09T13:34:03.809Z,3.29
2022-12-09T13:36:38.229Z,3.39
2022-12-09T13:39:06.405Z,3.43
2022-12-09T13:42:01.517Z,3.48
2022-12-09T13:44:35.951Z,3.42
2022-12-09T13:47:25.439Z,3.41
2022-12-09T13:49:57.700Z,3.34
2022-12-09T13:52:42.253Z,3.24
2022-12-09T13:55:20.997Z,3.10
2022-12-09T13:57:58.297Z,2.99
2022-12-09T14:00:26.113Z,2.86
2022-12-09T14:02:59.623Z,2.71
2022-12-09T14:05:31.259Z,2.58
2022-12-09T14:08:02.759Z,2.43
2022-12-09T14:10:39.034Z,2.27
2022-12-09T14:13:25.396Z,2.13
2022-12-09T14:16:15.395Z,2.00
2022-12-09T14:18:43.699Z,1.85
2022-12-09T14:21:29.497Z,1.72
2022-12-09T14:24:35.444Z,1.58
2022-12-09T14:27:18.166Z,1.44
2022-12-09T14:29:51.871Z,1.32
2022-12-09T14:32:25.639Z,1.21
2022-12-09T14:35:07.303Z,1.11
2022-12-09T14:37:55.470Z,1.00
2022-12-09T14:40:38.990Z,0.92
2022-12-09T14:43:33.146Z,0.81
2022-12-09T14:46:04.078Z,0.71
2022-12-09T14:48:34.407Z,0.63
2022-12-09T14:51:16.683Z,0.55
2022-12-09T14:53:47.856Z,0.49
2022-12-09T14:56:18.662Z,0.43
2022-12-09T14:58:51.320Z,0.35
2022-12-09T15:01:20.456Z,0.27
2022-12-09T15:03:57.383Z,0.21
2022-12-09T15:06:27.013Z,0.13
2022-12-09T15:08:57.113Z,0.08
2022-12-09T15:11:29.239Z,0.00
2022-12-09T15:14:19.494Z,-0.04
2022-12-09T15:16:50.979Z,-0.09
2022-12-09T15:19:51.264Z,-0.16
2022-12-09T15:22:14.620Z,-0.21
2022-12-09T15:24:50.261Z,-0.28
2022-12-09T15:27:20.471Z,-0.33
2022-12-09T15:29:48.322Z,-0.45
2022-12-09T15:32:23.411Z,-0.44
2022-12-09T15:34:51.418Z,-0.49
2022-12-09T15:37:20.693Z,-0.53
2022-12-09T15:39:56.173Z,-0.58
2022-12-09T15:42:27.635Z,-0.62
2022-12-09T15:45:04.785Z,-0.69
2022-12-09T15:47:38.821Z,-0.74
2022-12-09T15:50:18.277Z,-0.77
2022-12-09T15:52:52.161Z,-0.83
2022-12-09T15:55:23.646Z,-0.87
2022-12-09T15:57:54.883Z,-0.91
2022-12-09T16:00:22.853Z,-0.93
2022-12-09T16:02:52.225Z,-0.95
2022-12-09T16:05:25.329Z,-0.97
2022-12-09T16:07:56.362Z,-0.98
2022-12-09T16:10:26.897Z,-1.02
2022-12-09T16:13:10.505Z,-1.00
2022-12-09T16:15:46.039Z,-0.97
2022-12-09T16:18:19.390Z,-0.95
2022-12-09T16:21:00.459Z,-0.90
2022-12-09T16:23:28.732Z,-0.84
2022-12-09T16:26:06.352Z,-0.80
2022-12-09T16:28:34.991Z,-0.69
2022-12-09T16:31:05.203Z,-0.64
2022-12-09T16:33:38.743Z,-0.61
2022-12-09T16:36:10.023Z,-0.62
2022-12-09T16:38:38.588Z,-0.63
2022-12-09T16:41:11.322Z,-0.64
2022-12-09T16:43:55.006Z,-0.66
2022-12-09T16:46:49.635Z,-0.63
2022-12-09T16:49:18.712Z,-0.57
2022-12-09T16:51:46.427Z,-0.48
2022-12-09T16:54:20.626Z,-0.39
2022-12-09T16:56:49.431Z,-0.29
2022-12-09T16:59:17.250Z,-0.19
2022-12-09T17:01:45.224Z,-0.06
2022-12-09T17:04:16.059Z,0.08
2022-12-09T17:06:45.262Z,0.20
2022-12-09T17:09:13.730Z,0.33
2022-12-09T17:11:47.012Z,0.49
2022-12-09T17:14:16.342Z,0.63
2022-12-09T17:16:44.126Z,0.77
2022-12-09T17:19:13.426Z,0.88
2022-12-09T17:21:41.135Z,1.00
2022-12-09T17:24:11.257Z,1.12
2022-12-09T17:26:39.127Z,1.19
2022-12-09T17:29:07.430Z,1.29
2022-12-09T17:31:35.206Z,1.38
2022-12-09T17:34:03.023Z,1.47
2022-12-09T17:36:30.709Z,1.53
2022-12-09T17:39:01.477Z,1.58
2022-12-09T17:41:30.574Z,1.62
2022-12-09T17:43:58.717Z,1.48
2022-12-09T17:46:26.610Z,1.63
2022-12-09T17:48:54.369Z,1.61
2022-12-09T17:51:23.081Z,1.56
2022-12-09T17:53:51.174Z,1.52
2022-12-09T17:56:21.793Z,1.48
2022-12-09T17:58:56.263Z,1.43
2022-12-09T18:01:25.776Z,1.37
2022-12-09T18:03:59.430Z,1.36
2022-12-09T18:06:34.580Z,1.33
2022-12-09T18:09:04.726Z,1.32
2022-12-09T18:11:32.786Z,1.33
2022-12-09T18:14:02.397Z,1.35
2022-12-09T18:16:30.411Z,1.38
2022-12-09T18:19:02.389Z,1.38
2022-12-09T18:21:30.115Z,1.40
2022-12-09T18:23:57.835Z,1.42
2022-12-09T18:26:30.522Z,1.47
2022-12-09T18:29:01.889Z,1.50
2022-12-09T18:31:29.980Z,1.54
2022-12-09T18:33:57.784Z,1.58
2022-12-09T18:36:27.998Z,1.62
2022-12-09T18:38:57.912Z,1.64
2022-12-09T18:41:29.013Z,1.65
2022-12-09T18:43:58.344Z,1.65
2022-12-09T18:46:29.023Z,1.67
2022-12-09T18:48:59.184Z,1.66
2022-12-09T18:51:27.328Z,1.67
2022-12-09T18:53:55.381Z,1.68
2022-12-09T18:56:23.082Z,1.69
2022-12-09T18:59:05.906Z,1.69
2022-12-09T19:01:39.470Z,1.69
2022-12-09T19:04:09.710Z,1.68
2022-12-09T19:06:39.761Z,1.68
2022-12-09T19:09:09.365Z,1.69
2022-12-09T19:11:39.138Z,1.69
2022-12-09T19:14:08.373Z,1.69
2022-12-09T19:16:37.853Z,1.70
2022-12-09T19:19:10.088Z,1.71
2022-12-09T19:21:39.197Z,1.71
2022-12-09T19:24:08.024Z,1.70
2022-12-09T19:26:37.428Z,1.70
2022-12-09T19:29:08.628Z,1.70
2022-12-09T19:31:39.351Z,1.73
2022-12-09T19:34:09.382Z,1.72
2022-12-09T19:36:37.161Z,1.70
2022-12-09T19:39:08.180Z,1.67
2022-12-09T19:41:36.375Z,1.63
2022-12-09T19:44:05.691Z,1.58
2022-12-09T19:46:34.675Z,1.54
2022-12-09T19:49:03.915Z,1.48
2022-12-09T19:51:32.282Z,1.42
2022-12-09T19:54:01.945Z,1.36
2022-12-09T19:56:30.309Z,1.29
2022-12-09T19:58:58.293Z,1.20
2022-12-09T20:01:30.650Z,1.13
2022-12-09T20:04:13.579Z,1.05
2022-12-09T20:06:49.994Z,0.94
2022-12-09T20:09:24.168Z,0.86
2022-12-09T20:11:52.730Z,0.78
2022-12-09T20:14:20.822Z,0.71
2022-12-09T20:16:48.557Z,0.61
2022-12-09T20:19:16.268Z,0.50
2022-12-09T20:21:43.926Z,0.38
2022-12-09T20:24:12.926Z,0.25
2022-12-09T20:26:40.602Z,0.15
2022-12-09T20:29:11.821Z,0.02
2022-12-09T20:31:40.637Z,-0.10
2022-12-09T20:34:10.042Z,-0.18
2022-12-09T20:36:40.495Z,-0.28
2022-12-09T20:39:12.430Z,-0.37
2022-12-09T20:41:42.347Z,-0.45
2022-12-09T20:44:11.292Z,-0.52
2022-12-09T20:46:40.330Z,-0.60
2022-12-09T20:49:08.162Z,-0.67
2022-12-09T20:51:38.572Z,-0.74
2022-12-09T20:54:08.069Z,-0.82
2022-12-09T20:56:36.469Z,-0.87
2022-12-09T20:59:06.686Z,-0.94
2022-12-09T21:01:36.788Z,-1.00
2022-12-09T21:04:06.826Z,-1.07
2022-12-09T21:06:36.854Z,-1.14
2022-12-09T21:09:06.967Z,-1.22
2022-12-09T21:11:35.175Z,-1.30
2022-12-09T21:14:06.864Z,-1.36
2022-12-09T21:16:36.804Z,-1.43
2022-12-09T21:19:07.304Z,-1.46
2022-12-09T21:21:37.395Z,-1.48
2022-12-09T21:24:05.926Z,-1.52
2022-12-09T21:26:34.034Z,-1.53
2022-12-09T21:29:02.612Z,-1.58
2022-12-09T21:31:33.511Z,-1.61
2022-12-09T21:34:03.508Z,-1.64
2022-12-09T21:36:33.342Z,-1.65
2022-12-09T21:39:01.546Z,-1.68
2022-12-09T21:41:31.987Z,-1.69
2022-12-09T21:43:59.836Z,-1.72
2022-12-09T21:46:29.227Z,-1.73
2022-12-09T21:49:03.592Z,-1.76
2022-12-09T21:51:32.293Z,-1.78
2022-12-09T21:54:00.334Z,-1.81
2022-12-09T21:56:30.240Z,-1.80
2022-12-09T21:58:58.993Z,-1.83
2022-12-09T22:01:28.526Z,-1.85
2022-12-09T22:03:58.933Z,-1.85
2022-12-09T22:06:27.070Z,-1.89
2022-12-09T22:08:54.992Z,-1.92
2022-12-09T22:11:24.884Z,-1.94
2022-12-09T22:13:53.898Z,-1.98
2022-12-09T22:16:23.739Z,-2.01
2022-12-09T22:18:53.718Z,-2.04
2022-12-09T22:21:25.925Z,-2.06
2022-12-09T22:23:54.892Z,-2.06
2022-12-09T22:26:23.797Z,-2.08
2022-12-09T22:28:52.382Z,-2.10
2022-12-09T22:31:23.813Z,-2.13
2022-12-09T22:33:54.751Z,-2.14
2022-12-09T22:36:24.319Z,-2.13
2022-12-09T22:38:52.051Z,-2.12
2022-12-09T22:41:22.011Z,-2.07
2022-12-09T22:43:50.353Z,-1.98
2022-12-09T22:46:20.882Z,-1.90
2022-12-09T22:48:49.892Z,-1.81
2022-12-09T22:51:19.792Z,-1.70
2022-12-09T22:53:50.567Z,-1.61
2022-12-09T22:56:18.399Z,-1.48
2022-12-09T22:58:46.340Z,-1.39
2022-12-09T23:01:16.079Z,-1.29
2022-12-09T23:03:44.376Z,-1.22
2022-12-09T23:06:12.636Z,-1.14
2022-12-09T23:08:42.955Z,-1.10
2022-12-09T23:11:14.989Z,-1.05
2022-12-09T23:13:42.965Z,-0.99
2022-12-09T23:16:14.342Z,-0.94
2022-12-09T23:18:42.467Z,-0.88
2022-12-09T23:21:13.416Z,-0.82
2022-12-09T23:23:41.893Z,-0.72
2022-12-09T23:26:13.257Z,-0.66
2022-12-09T23:28:43.689Z,-0.58
2022-12-09T23:31:14.152Z,-0.54
2022-12-09T23:33:43.887Z,-0.52
2022-12-09T23:36:14.179Z,-0.50
2022-12-09T23:38:42.533Z,-0.47
2022-12-09T23:41:13.155Z,-0.44
2022-12-09T23:43:40.975Z,-0.40
2022-12-09T23:46:15.383Z,-0.34
2022-12-09T23:48:44.316Z,-0.30
2022-12-09T23:51:13.251Z,-0.24
2022-12-09T23:53:43.970Z,-0.24
2022-12-09T23:56:14.789Z,-0.19
2022-12-09T23:58:43.221Z,-0.18
